createdAt,value
2022-12-03T00:01:57.316Z,90.96
2022-12-03T00:04:26.762Z,91.34
2022-12-03T00:06:56.878Z,91.26
2022-12-03T00:09:28.082Z,91.29
2022-12-03T00:12:02.444Z,91.66
2022-12-03T00:14:31.829Z,91.49
2022-12-03T00:17:01.114Z,91.56
2022-12-03T00:19:30.434Z,91.99
2022-12-03T00:21:59.680Z,92.16
2022-12-03T00:24:31.409Z,92.29
2022-12-03T00:27:01.054Z,92.18
2022-12-03T00:29:31.196Z,92.09
2022-12-03T00:32:00.339Z,92.06
2022-12-03T00:34:29.384Z,92.55
2022-12-03T00:36:58.571Z,92.07
2022-12-03T00:39:27.853Z,91.99
2022-12-03T00:41:59.286Z,92.46
2022-12-03T00:44:28.407Z,92.27
2022-12-03T00:46:57.547Z,92.10
2022-12-03T00:49:26.803Z,92.44
2022-12-03T00:51:55.923Z,92.94
2022-12-03T00:54:31.418Z,93.02
2022-12-03T00:59:44.479Z,92.68
2022-12-03T01:02:13.670Z,92.00
2022-12-03T01:04:43.101Z,91.79
2022-12-03T01:07:12.837Z,92.03
2022-12-03T01:09:52.170Z,92.34
2022-12-03T01:12:23.433Z,92.29
2022-12-03T01:14:53.012Z,92.32
2022-12-03T01:17:22.349Z,91.92
2022-12-03T01:19:52.203Z,91.93
2022-12-03T01:22:21.386Z,92.04
2022-12-03T01:24:50.728Z,91.82
2022-12-03T01:27:34.821Z,91.94
2022-12-03T01:30:04.151Z,92.26
2022-12-03T01:32:31.899Z,92.12
2022-12-03T01:35:01.262Z,91.93
2022-12-03T01:37:30.378Z,92.00
2022-12-03T01:39:59.666Z,91.91
2022-12-03T01:42:30.855Z,92.01
2022-12-03T01:45:03.522Z,92.04
2022-12-03T01:47:36.175Z,91.64
2022-12-03T01:50:09.801Z,91.62
2022-12-03T01:52:41.162Z,91.80
2022-12-03T01:55:16.788Z,91.94
2022-12-03T01:57:49.072Z,92.13
2022-12-03T02:00:22.550Z,91.72
2022-12-03T02:03:01.624Z,91.36
2022-12-03T02:05:32.605Z,91.14
2022-12-03T02:08:02.676Z,91.34
2022-12-03T02:10:34.333Z,91.23
2022-12-03T02:13:06.796Z,91.54
2022-12-03T02:15:43.276Z,91.29
2022-12-03T02:18:12.883Z,90.98
2022-12-03T02:20:48.900Z,91.62
2022-12-03T02:23:27.994Z,91.31
2022-12-03T02:26:07.840Z,91.66
2022-12-03T02:28:42.237Z,91.55
2022-12-03T02:31:11.617Z,91.66
2022-12-03T02:33:40.831Z,91.89
2022-12-03T02:36:15.227Z,91.88
2022-12-03T02:38:47.398Z,91.44
2022-12-03T02:41:40.481Z,91.58
2022-12-03T02:44:10.728Z,91.64
2022-12-03T02:46:40.107Z,92.06
2022-12-03T02:49:14.504Z,91.53
2022-12-03T02:51:43.731Z,91.63
2022-12-03T02:54:13.329Z,91.96
2022-12-03T02:56:44.506Z,91.87
2022-12-03T02:59:14.651Z,92.03
2022-12-03T03:01:44.053Z,92.01
2022-12-03T03:04:18.753Z,92.24
2022-12-03T03:06:48.143Z,92.08
2022-12-03T03:09:20.307Z,92.21
2022-12-03T03:14:38.492Z,91.89
2022-12-03T03:17:10.823Z,92.10
2022-12-03T03:19:40.038Z,92.15
2022-12-03T03:22:09.381Z,91.93
2022-12-03T03:27:16.353Z,91.65
2022-12-03T03:29:45.610Z,92.05
2022-12-03T03:32:14.932Z,92.18
2022-12-03T03:34:44.883Z,91.70
2022-12-03T03:37:14.066Z,91.93
2022-12-03T03:39:43.431Z,92.05
2022-12-03T03:42:12.713Z,92.12
2022-12-03T03:44:48.914Z,91.49
2022-12-03T03:47:30.326Z,91.67
2022-12-03T03:49:59.751Z,91.40
2022-12-03T03:52:29.010Z,91.15
2022-12-03T03:54:58.546Z,91.41
2022-12-03T03:57:31.807Z,91.19
2022-12-03T04:00:04.468Z,91.67
2022-12-03T04:02:35.964Z,91.84
2022-12-03T04:05:05.861Z,91.26
2022-12-03T04:07:35.009Z,91.99
2022-12-03T04:10:24.426Z,91.36
2022-12-03T04:12:57.493Z,91.69
2022-12-03T04:15:33.740Z,92.08
2022-12-03T04:18:21.022Z,91.99
2022-12-03T04:20:50.248Z,91.77
2022-12-03T04:23:17.390Z,91.54
2022-12-03T04:28:51.361Z,91.44
2022-12-03T04:34:41.787Z,92.14
2022-12-03T04:37:16.817Z,91.86
2022-12-03T04:39:46.055Z,91.39
2022-12-03T04:42:15.291Z,91.61
2022-12-03T04:44:56.247Z,92.11
2022-12-03T04:47:27.654Z,91.48
2022-12-03T04:50:01.836Z,91.26
2022-12-03T04:52:32.370Z,91.91
2022-12-03T04:55:01.578Z,91.22
2022-12-03T04:57:30.979Z,91.41
2022-12-03T05:00:00.544Z,91.28
2022-12-03T05:02:31.744Z,90.82
2022-12-03T05:05:01.587Z,91.00
2022-12-03T05:07:32.314Z,90.70
2022-12-03T05:10:14.810Z,90.79
2022-12-03T05:12:44.042Z,91.34
2022-12-03T05:15:13.342Z,91.99
2022-12-03T05:17:49.665Z,91.91
2022-12-03T05:20:31.959Z,92.19
2022-12-03T05:23:03.088Z,92.33
2022-12-03T05:25:32.348Z,92.10
2022-12-03T05:28:01.469Z,91.54
2022-12-03T05:30:30.900Z,91.89
2022-12-03T05:33:02.013Z,91.96
2022-12-03T05:35:31.538Z,92.02
2022-12-03T05:38:00.737Z,92.05
2022-12-03T05:40:30.209Z,92.19
2022-12-03T05:42:57.480Z,91.82
2022-12-03T05:45:33.704Z,92.20
2022-12-03T05:50:43.434Z,92.17
2022-12-03T05:53:18.743Z,92.32
2022-12-03T05:55:47.799Z,92.21
2022-12-03T05:58:16.992Z,91.90
2022-12-03T06:00:51.163Z,92.30
2022-12-03T06:03:23.428Z,92.03
2022-12-03T06:05:57.733Z,92.20
2022-12-03T06:08:35.881Z,92.93
2022-12-03T06:11:05.415Z,92.95
2022-12-03T06:13:34.451Z,93.41
2022-12-03T06:16:03.739Z,92.99
2022-12-03T06:18:39.892Z,92.76
2022-12-03T06:21:09.415Z,92.95
2022-12-03T06:23:44.095Z,93.32
2022-12-03T06:26:13.774Z,93.18
2022-12-03T06:28:46.109Z,92.99
2022-12-03T06:31:18.467Z,92.96
2022-12-03T06:33:49.741Z,92.90
2022-12-03T06:36:22.989Z,92.73
2022-12-03T06:38:57.814Z,92.86
2022-12-03T06:41:37.226Z,92.85
2022-12-03T06:44:11.860Z,92.87
2022-12-03T06:46:41.274Z,92.78
2022-12-03T06:49:12.413Z,92.61
2022-12-03T06:51:47.834Z,93.35
2022-12-03T06:54:17.319Z,93.35
2022-12-03T06:56:49.237Z,92.96
2022-12-03T06:59:20.524Z,92.97
2022-12-03T07:01:49.926Z,93.01
2022-12-03T07:04:21.374Z,92.89
2022-12-03T07:06:50.656Z,92.45
2022-12-03T07:09:19.793Z,92.55
2022-12-03T07:11:54.090Z,92.48
2022-12-03T07:14:23.387Z,91.98
2022-12-03T07:16:52.668Z,91.93
2022-12-03T07:22:07.592Z,92.22
2022-12-03T07:24:36.839Z,92.48
2022-12-03T07:27:06.083Z,93.07
2022-12-03T07:29:35.740Z,92.90
2022-12-03T07:32:07.221Z,93.58
2022-12-03T07:34:38.462Z,92.71
2022-12-03T07:37:07.773Z,92.49
2022-12-03T07:39:36.989Z,92.36
2022-12-03T07:42:08.908Z,91.92
2022-12-03T07:44:38.203Z,92.46
2022-12-03T07:47:07.428Z,92.20
2022-12-03T07:49:38.689Z,92.48
2022-12-03T07:52:07.990Z,91.67
2022-12-03T07:54:37.346Z,92.51
2022-12-03T07:57:06.923Z,92.45
2022-12-03T07:59:36.181Z,92.20
2022-12-03T08:02:06.137Z,91.92
2022-12-03T08:04:37.512Z,92.03
2022-12-03T08:07:15.717Z,91.18
2022-12-03T08:09:45.404Z,92.14
2022-12-03T08:12:18.813Z,91.80
2022-12-03T08:14:53.400Z,91.95
2022-12-03T08:17:28.921Z,92.24
2022-12-03T08:20:00.050Z,92.28
2022-12-03T08:22:30.907Z,92.80
2022-12-03T08:25:00.631Z,92.39
2022-12-03T08:27:30.150Z,92.39
2022-12-03T08:30:05.494Z,92.38
2022-12-03T08:32:34.792Z,92.29
2022-12-03T08:35:13.454Z,91.32
2022-12-03T08:37:43.054Z,91.82
2022-12-03T08:40:29.008Z,91.08
2022-12-03T08:42:58.384Z,91.70
2022-12-03T08:45:43.313Z,90.74
2022-12-03T08:48:36.547Z,91.15
2022-12-03T08:51:17.150Z,91.59
2022-12-03T08:53:49.671Z,91.56
2022-12-03T08:56:24.367Z,91.48
2022-12-03T08:58:56.876Z,91.16
2022-12-03T09:01:35.726Z,91.39
2022-12-03T09:04:19.295Z,91.66
2022-12-03T09:06:50.934Z,91.45
2022-12-03T09:09:20.384Z,91.80
2022-12-03T09:11:49.483Z,90.73
2022-12-03T09:14:24.608Z,91.65
2022-12-03T09:16:55.245Z,91.76
2022-12-03T09:19:25.544Z,91.23
2022-12-03T09:21:56.972Z,91.07
2022-12-03T09:24:26.221Z,90.56
2022-12-03T09:27:02.115Z,91.33
2022-12-03T09:29:31.446Z,92.05
2022-12-03T09:32:00.812Z,92.92
2022-12-03T09:34:30.057Z,93.92
2022-12-03T09:37:01.333Z,93.49
2022-12-03T09:39:30.597Z,93.52
2022-12-03T09:41:59.928Z,92.54
2022-12-03T09:44:31.579Z,92.46
2022-12-03T09:47:01.711Z,92.35
2022-12-03T09:49:34.026Z,92.82
2022-12-03T09:52:07.151Z,93.05
2022-12-03T09:54:38.190Z,92.86
2022-12-03T09:57:13.965Z,92.52
2022-12-03T09:59:48.755Z,92.80
2022-12-03T10:02:23.133Z,92.80
2022-12-03T10:04:53.077Z,92.63
2022-12-03T10:07:25.058Z,92.19
2022-12-03T10:09:54.994Z,92.47
2022-12-03T10:12:26.266Z,92.07
2022-12-03T10:14:56.524Z,92.26
2022-12-03T10:17:25.857Z,92.72
2022-12-03T10:19:55.844Z,92.05
2022-12-03T10:22:36.671Z,92.54
2022-12-03T10:25:09.669Z,92.07
2022-12-03T10:27:38.973Z,92.08
2022-12-03T10:30:19.249Z,91.66
2022-12-03T10:32:51.184Z,92.02
2022-12-03T10:35:21.363Z,92.12
2022-12-03T10:38:21.850Z,91.81
2022-12-03T10:40:56.215Z,91.49
2022-12-03T10:43:27.347Z,91.19
2022-12-03T10:46:14.798Z,90.35
2022-12-03T10:48:44.293Z,89.82
2022-12-03T10:51:23.089Z,89.94
2022-12-03T10:53:59.820Z,90.09
2022-12-03T10:56:29.899Z,89.86
2022-12-03T10:58:59.533Z,90.05
2022-12-03T11:01:29.125Z,89.87
2022-12-03T11:04:05.179Z,88.78
2022-12-03T11:06:34.770Z,89.02
2022-12-03T11:09:09.001Z,89.47
2022-12-03T11:11:38.884Z,90.48
2022-12-03T11:14:08.003Z,90.22
2022-12-03T11:17:10.089Z,89.17
2022-12-03T11:19:50.499Z,89.36
2022-12-03T11:22:30.255Z,89.78
2022-12-03T11:25:30.867Z,89.29
2022-12-03T11:28:29.914Z,89.65
2022-12-03T11:31:03.136Z,90.24
2022-12-03T11:33:34.122Z,89.99
2022-12-03T11:36:14.859Z,89.63
2022-12-03T11:38:58.050Z,89.83
2022-12-03T11:41:33.497Z,90.17
2022-12-03T11:44:21.028Z,90.26
2022-12-03T11:46:52.760Z,90.05
2022-12-03T11:49:30.609Z,89.91
2022-12-03T11:52:00.698Z,88.77
2022-12-03T11:54:30.208Z,89.63
2022-12-03T11:56:59.553Z,90.09
2022-12-03T11:59:28.703Z,90.09
2022-12-03T12:02:00.049Z,90.75
2022-12-03T12:04:33.004Z,90.62
2022-12-03T12:07:07.448Z,90.28
2022-12-03T12:09:55.543Z,90.88
2022-12-03T12:12:36.714Z,90.85
2022-12-03T12:15:44.319Z,91.16
2022-12-03T12:18:43.689Z,91.09
2022-12-03T12:21:47.097Z,90.89
2022-12-03T12:24:32.659Z,91.16
2022-12-03T12:27:05.010Z,90.96
2022-12-03T12:29:34.247Z,90.95
2022-12-03T12:32:14.664Z,90.95
2022-12-03T12:34:47.181Z,90.83
2022-12-03T12:37:21.719Z,91.03
2022-12-03T12:39:58.471Z,91.29
2022-12-03T12:42:33.108Z,91.56
2022-12-03T12:45:18.113Z,91.35
2022-12-03T12:55:11.850Z,90.51
2022-12-03T12:57:42.129Z,91.70
2022-12-03T13:00:18.580Z,92.67
2022-12-03T13:02:52.778Z,92.93
2022-12-03T13:05:22.318Z,92.93
2022-12-03T13:07:54.298Z,94.28
2022-12-03T13:10:37.064Z,94.51
2022-12-03T13:13:18.348Z,94.11
2022-12-03T13:15:57.138Z,93.44
2022-12-03T13:18:30.270Z,93.06
2022-12-03T13:21:21.729Z,93.23
2022-12-03T13:23:52.809Z,93.43
2022-12-03T13:26:36.415Z,93.46
2022-12-03T13:29:15.376Z,93.67
2022-12-03T13:34:35.096Z,93.88
2022-12-03T13:37:08.832Z,93.86
2022-12-03T13:39:40.437Z,93.83
2022-12-03T13:42:39.393Z,94.22
2022-12-03T13:45:32.631Z,94.35
2022-12-03T13:48:04.572Z,93.98
2022-12-03T13:50:36.026Z,94.53
2022-12-03T13:53:20.796Z,93.91
2022-12-03T13:55:51.348Z,93.96
2022-12-03T13:58:27.857Z,94.17
2022-12-03T14:00:57.241Z,93.99
2022-12-03T14:03:36.662Z,94.34
2022-12-03T14:06:06.261Z,93.86
2022-12-03T14:08:35.631Z,94.88
2022-12-03T14:11:04.986Z,94.40
2022-12-03T14:13:36.180Z,94.22
2022-12-03T14:16:05.740Z,94.26
2022-12-03T14:18:37.528Z,94.69
2022-12-03T14:21:07.850Z,94.57
2022-12-03T14:23:42.288Z,94.70
2022-12-03T14:26:11.421Z,94.34
2022-12-03T14:28:42.665Z,94.29
2022-12-03T14:31:11.944Z,94.46
2022-12-03T14:33:41.152Z,94.17
2022-12-03T14:36:11.175Z,94.50
2022-12-03T14:38:40.401Z,94.27
2022-12-03T14:41:29.856Z,94.12
2022-12-03T14:44:06.248Z,93.88
2022-12-03T14:46:35.490Z,93.96
2022-12-03T14:49:04.610Z,93.96
2022-12-03T14:51:38.985Z,94.01
2022-12-03T14:54:08.256Z,93.29
2022-12-03T14:56:37.547Z,93.46
2022-12-03T14:59:08.738Z,93.88
2022-12-03T15:01:38.007Z,93.58
2022-12-03T15:04:07.255Z,93.69
2022-12-03T15:06:36.833Z,93.70
2022-12-03T15:09:11.375Z,93.34
2022-12-03T15:11:46.660Z,93.21
2022-12-03T15:14:18.122Z,92.93
2022-12-03T15:16:47.418Z,93.05
2022-12-03T15:19:16.958Z,92.85
2022-12-03T15:21:46.253Z,93.32
2022-12-03T15:24:15.432Z,93.30
2022-12-03T15:26:45.058Z,93.20
2022-12-03T15:29:14.373Z,93.23
2022-12-03T15:31:45.665Z,93.10
2022-12-03T15:34:20.302Z,92.84
2022-12-03T15:36:52.600Z,92.56
2022-12-03T15:39:21.820Z,93.38
2022-12-03T15:41:56.201Z,93.27
2022-12-03T15:44:25.219Z,93.20
2022-12-03T15:46:56.389Z,93.05
2022-12-03T15:49:25.645Z,93.28
2022-12-03T15:51:54.739Z,93.54
2022-12-03T15:54:24.090Z,93.18
2022-12-03T15:56:57.211Z,93.18
2022-12-03T15:59:34.386Z,92.97
2022-12-03T16:02:05.929Z,91.69
2022-12-03T16:04:35.280Z,92.21
2022-12-03T16:07:04.556Z,91.51
2022-12-03T16:09:39.799Z,91.61
2022-12-03T16:12:09.180Z,91.58
2022-12-03T16:14:38.435Z,91.17
2022-12-03T16:17:09.617Z,91.11
2022-12-03T16:19:38.824Z,91.38
2022-12-03T16:22:08.010Z,90.62
2022-12-03T16:24:42.333Z,91.23
2022-12-03T16:27:11.714Z,90.89
2022-12-03T16:29:40.944Z,90.32
2022-12-03T16:32:17.345Z,89.75
2022-12-03T16:34:46.647Z,89.61
2022-12-03T16:37:18.202Z,89.09
2022-12-03T16:39:54.690Z,88.76
2022-12-03T16:42:24.344Z,88.66
2022-12-03T16:45:16.299Z,88.36
2022-12-03T16:47:47.407Z,88.36
2022-12-03T16:50:23.099Z,88.39
2022-12-03T16:52:58.483Z,88.27
2022-12-03T16:55:27.733Z,88.73
2022-12-03T16:57:57.014Z,88.30
2022-12-03T17:00:26.505Z,87.60
2022-12-03T17:02:57.879Z,88.03
2022-12-03T17:05:27.301Z,87.90
2022-12-03T17:07:56.541Z,88.15
2022-12-03T17:10:26.360Z,88.07
2022-12-03T17:13:11.326Z,88.09
2022-12-03T17:15:41.154Z,88.12
2022-12-03T17:18:12.416Z,87.83
2022-12-03T17:20:41.939Z,87.95
2022-12-03T17:23:11.465Z,87.70
2022-12-03T17:25:40.704Z,86.92
2022-12-03T17:28:09.925Z,87.63
2022-12-03T17:30:45.191Z,88.01
2022-12-03T17:33:21.401Z,87.48
2022-12-03T17:35:52.080Z,87.29
2022-12-03T17:38:21.378Z,87.50
2022-12-03T17:40:50.528Z,87.78
2022-12-03T17:43:19.721Z,87.49
2022-12-03T17:45:48.864Z,87.76
2022-12-03T17:48:18.463Z,87.62
2022-12-03T17:50:50.412Z,87.63
2022-12-03T17:53:19.701Z,87.03
2022-12-03T17:55:48.905Z,87.33
2022-12-03T17:58:18.300Z,87.43
2022-12-03T18:00:53.994Z,87.19
2022-12-03T18:03:26.698Z,87.24
2022-12-03T18:05:57.821Z,87.39
2022-12-03T18:08:27.175Z,87.58
2022-12-03T18:10:56.338Z,87.52
2022-12-03T18:13:30.661Z,87.56
2022-12-03T18:16:00.122Z,88.08
2022-12-03T18:18:29.743Z,87.89
2022-12-03T18:21:08.700Z,87.97
2022-12-03T18:23:38.032Z,87.96
2022-12-03T18:26:07.937Z,87.72
2022-12-03T18:28:37.305Z,88.29
2022-12-03T18:31:08.672Z,88.23
2022-12-03T18:33:43.078Z,88.39
2022-12-03T18:36:20.310Z,88.20
2022-12-03T18:38:51.662Z,88.22
2022-12-03T18:41:26.938Z,88.29
2022-12-03T18:43:57.088Z,88.38
2022-12-03T18:46:51.975Z,88.24
2022-12-03T18:49:15.681Z,88.55
2022-12-03T18:51:48.322Z,88.44
2022-12-03T18:54:18.895Z,88.04
2022-12-03T18:56:48.111Z,88.17
2022-12-03T18:59:17.396Z,88.51
2022-12-03T19:01:46.742Z,88.32
2022-12-03T19:04:15.951Z,88.17
2022-12-03T19:06:47.157Z,88.40
2022-12-03T19:09:17.069Z,88.67
2022-12-03T19:11:46.337Z,88.54
2022-12-03T19:14:21.017Z,88.84
2022-12-03T19:16:51.661Z,88.94
2022-12-03T19:19:20.908Z,89.06
2022-12-03T19:21:52.207Z,88.93
2022-12-03T19:24:24.711Z,89.01
2022-12-03T19:27:06.064Z,88.71
2022-12-03T19:29:35.667Z,88.57
2022-12-03T19:32:05.110Z,88.74
2022-12-03T19:34:35.669Z,89.37
2022-12-03T19:37:06.826Z,89.58
2022-12-03T19:39:41.148Z,89.40
2022-12-03T19:42:10.484Z,89.24
2022-12-03T19:44:39.830Z,89.23
2022-12-03T19:49:44.287Z,88.52
2022-12-03T19:52:16.492Z,89.09
2022-12-03T19:54:45.930Z,89.06
2022-12-03T19:57:19.693Z,88.85
2022-12-03T19:59:52.926Z,89.31
2022-12-03T20:02:31.824Z,89.01
2022-12-03T20:05:01.321Z,89.18
2022-12-03T20:07:32.478Z,88.95
2022-12-03T20:10:02.065Z,88.68
2022-12-03T20:12:42.505Z,88.74
2022-12-03T20:15:13.785Z,88.91
2022-12-03T20:17:47.949Z,88.75
2022-12-03T20:20:17.216Z,88.64
2022-12-03T20:22:48.548Z,88.98
2022-12-03T20:25:23.008Z,88.32
2022-12-03T20:27:52.171Z,88.75
2022-12-03T20:30:21.420Z,88.70
2022-12-03T20:32:55.723Z,89.10
2022-12-03T20:35:24.920Z,89.17
2022-12-03T20:37:56.327Z,88.51
2022-12-03T20:40:25.588Z,88.88
2022-12-03T20:42:54.788Z,88.87
2022-12-03T20:45:23.944Z,88.92
2022-12-03T20:47:53.114Z,88.53
2022-12-03T20:50:22.344Z,88.67
2022-12-03T20:53:16.226Z,88.53
2022-12-03T20:55:42.706Z,87.87
2022-12-03T20:58:12.071Z,88.31
2022-12-03T21:00:41.170Z,88.52
2022-12-03T21:03:10.639Z,88.05
2022-12-03T21:05:45.673Z,87.47
2022-12-03T21:08:15.017Z,87.88
2022-12-03T21:10:51.652Z,88.08
2022-12-03T21:13:20.966Z,88.06
2022-12-03T21:15:50.185Z,88.01
2022-12-03T21:18:19.952Z,87.57
2022-12-03T21:20:49.852Z,88.02
2022-12-03T21:23:19.407Z,88.20
2022-12-03T21:25:50.503Z,87.74
2022-12-03T21:28:20.104Z,87.80
2022-12-03T21:30:49.251Z,87.41
2022-12-03T21:33:23.507Z,87.72
2022-12-03T21:35:52.954Z,87.62
2022-12-03T21:38:23.465Z,87.61
2022-12-03T21:40:55.596Z,86.89
2022-12-03T21:43:25.896Z,86.88
2022-12-03T21:45:55.174Z,87.09
2022-12-03T21:48:24.970Z,88.18
2022-12-03T21:51:04.317Z,88.13
2022-12-03T21:53:39.070Z,88.37
2022-12-03T21:56:19.648Z,87.48
2022-12-03T21:58:49.422Z,87.70
2022-12-03T22:01:26.798Z,88.14
2022-12-03T22:03:56.341Z,87.90
2022-12-03T22:06:25.738Z,88.20
2022-12-03T22:09:05.179Z,88.33
2022-12-03T22:11:47.038Z,88.18
2022-12-03T22:14:20.028Z,88.34
2022-12-03T22:16:49.205Z,87.67
2022-12-03T22:19:18.353Z,87.15
2022-12-03T22:21:52.915Z,87.39
2022-12-03T22:24:23.390Z,87.35
2022-12-03T22:26:54.344Z,86.98
2022-12-03T22:29:25.711Z,87.09
2022-12-03T22:32:03.492Z,86.54
2022-12-03T22:34:33.007Z,86.43
2022-12-03T22:37:02.250Z,86.14
2022-12-03T22:39:32.858Z,86.33
2022-12-03T22:42:02.085Z,86.62
2022-12-03T22:44:33.356Z,86.70
2022-12-03T22:47:02.599Z,86.42
2022-12-03T22:49:32.249Z,86.56
2022-12-03T22:52:12.954Z,86.35
2022-12-03T22:54:42.113Z,86.82
2022-12-03T22:57:11.375Z,86.86
2022-12-03T22:59:42.580Z,86.83
2022-12-03T23:02:11.879Z,87.18
2022-12-03T23:04:41.115Z,87.18
2022-12-03T23:07:10.632Z,86.53
2022-12-03T23:09:39.801Z,87.27
2022-12-03T23:12:09.104Z,87.37
2022-12-03T23:14:38.872Z,87.06
2022-12-03T23:17:10.172Z,87.05
2022-12-03T23:19:39.422Z,87.52
2022-12-03T23:22:08.615Z,87.20
2022-12-03T23:24:38.826Z,87.34
2022-12-03T23:27:09.088Z,87.77
2022-12-03T23:29:38.174Z,87.93
2022-12-03T23:32:14.434Z,87.61
2022-12-03T23:34:43.920Z,87.94
2022-12-03T23:37:14.741Z,87.88
2022-12-03T23:39:44.123Z,87.67
2022-12-03T23:42:18.345Z,87.90
2022-12-03T23:44:48.014Z,87.90
2022-12-03T23:47:19.245Z,87.62
2022-12-03T23:49:48.462Z,87.59
2022-12-03T23:52:17.844Z,87.63
2022-12-03T23:54:47.197Z,87.55
2022-12-03T23:57:17.852Z,87.58
2022-12-03T23:59:47.248Z,87.84
